Broughton-in-Furness, United Kingdom
Current Conditions -  °F | °C
As of 4:50 AM on Tuesday 21 Oct 2014 (Local Time) from EGNS Reporting Station
Broken Clouds Broken Clouds  
Wind Chill: 54°   Ceiling: 4000
Heat Index: 54°   Visibility: 6mi
Dew Point: 48°   Wind: 33mph
Humidity: 82%   Direction: 280°W
Pressure: 29.32"   Gusts: 51mph
Location:  54.28°N, 3.21°W
Report Text: EGNS 210350Z 28029G44KT 250V330 9999 FEW015 SCT020 BKN040 12/09 Q0993
Loading
Personal Weather Stations






























Interactive Weather Map
Tropical Storm Tracking
New forecast layout! Learn more

10-Day Weather Forecast

Advertisements
Track Severe Weather on mobile